Nearby METAR Reports

 

KSJC - San Jose, California, USA
Distance from station: NØ 14km
Oppdatert: 03/07/2020 11:53
Klart
Klart
 Vind fra SSØ
Vind: SSØ 13 km/h
Temperatur: 14°C
Duggpunkt: 9°C
Fuktighet: 72%
Barometer: 1013.9 hPa
Clouds: Klart
Visibility: 16 km
2020/07/03 09:53 KSJC 030953Z AUTO 16007KT 10SM CLR 14/09 A2994 RMK AO2 SLP139 T01390094
KNUQ - Moffett Nas/Mtn, California, USA
Distance from station: N 14km
Oppdatert: 03/07/2020 12:35

 Vind fra calm
Vind: Stille
Temperatur: 14°C
Duggpunkt: 10°C
Fuktighet: 77%
Barometer: 1014.2 hPa
Visibility: 16 km
2020/07/03 10:35 KNUQ 031035Z AUTO 00000KT 10SM 14/10 A2995 RMK AO2
 
KPAO - Palo Alto, California, USA
Distance from station: NNV 23km
Oppdatert: 03/07/2020 00:47
NOT Current
Klart
Klart
 Vind fra N
Vind: N 22 km/h
Temperatur: 23°C
Duggpunkt: 13°C
Fuktighet: 53%
Barometer: 1011.9 hPa
Clouds: Klart
Visibility: 16 km
2020/07/02 22:47 KPAO 022247Z 35012KT 10SM SKC 23/13 A2988 RMK LAST GPS/VOR N/A AT NIGHT
KRHV - San Jose/Reid, California, USA
Distance from station: ØNØ 19km
Oppdatert: 03/07/2020 06:55
NOT Current
Klart
Klart
 Vind fra SV
Vind: SV 9 km/h
Temperatur: 17°C
Duggpunkt: 10°C
Fuktighet: 64%
Barometer: 1013.9 hPa
Clouds: Klart
Visibility: 16 km
2020/07/03 04:55 KRHV 030455Z 22005KT 10SM SKC 17/10 A2994 RMK LAST
 
KOAK - Oakland, California, USA
Distance from station: NNV 50km
Oppdatert: 03/07/2020 11:53
Overskyet
Overskyet
 Vind fra NV
Vind: NV 7 km/h
Temperatur: 16°C
Duggpunkt: 12°C
Fuktighet: 77%
Barometer: 1014.2 hPa
Clouds: Overskyet
Visibility: 16 km
Cloud details: Overskyet 457 m
2020/07/03 09:53 KOAK 030953Z 31004KT 10SM OVC015 16/12 A2995 RMK AO2 SLP141 T01610117
KSQL - San Carlos Airpo, California, USA
Distance from station: NV 34km
Oppdatert: 03/07/2020 12:40
Overskyet
Overskyet
 Vind fra calm
Vind: Stille
Temperatur: 14°C
Duggpunkt: 11°C
Fuktighet: 82%
Barometer: 1014.6 hPa
Clouds: Overskyet
Visibility: 16 km
Cloud details: Overskyet 457 m
2020/07/03 10:40 KSQL 031040Z AUTO 00000KT 10SM OVC015 14/11 A2996 RMK AO2
 
KSFO - San Francisco, California, USA
Distance from station: NV 49km
Oppdatert: 03/07/2020 11:56
Few Clouds
Few Clouds
 Vind fra V
Vind: V 7 km/h
Temperatur: 13°C
Duggpunkt: 9°C
Fuktighet: 77%
Barometer: 1013.9 hPa
Clouds: Few Clouds
Visibility: 16 km
Cloud details: Few Clouds 152 m
Few Clouds 427 m
2020/07/03 09:56 KSFO 030956Z 26004KT 10SM FEW005 FEW014 13/09 A2994 RMK AO2 SLP139 T01280094
KE16 - San Martin, California, USA
Distance from station: ØSØ 43km
Oppdatert: 09/06/2020 22:20
NOT Current
Klart
Klart
 Vind fra NV
Vind: NV 17 km/h
Temperatur: 30°C
Duggpunkt: 2°C
Fuktighet: 17%
Barometer: 1020.3 hPa
Clouds: Klart
Visibility: 16 km
2020/06/09 20:20 KE16 092020Z AUTO 31009KT 290V350 10SM CLR 30/02 A3013 RMK AO2 PWINO PNO
 
KWVI - Watsonville, California, USA
Distance from station: SSØ 44km
Oppdatert: 03/07/2020 11:53
Overskyet
Overskyet
 Vind fra calm
Vind: Stille
Temperatur: 13°C
Duggpunkt: 11°C
Fuktighet: 88%
Barometer: 1015.2 hPa
Clouds: Overskyet
Visibility: 16 km
Cloud details: Overskyet 335 m
2020/07/03 09:53 KWVI 030953Z AUTO 00000KT 10SM OVC011 13/11 A2998 RMK AO2 SLP150 T01330106
KHAF - Half Moon Bay, California, USA
Distance from station: VNV 50km
Oppdatert: 03/07/2020 12:40

 Vind fra S
Vind: S 15 km/h
Temperatur: 13°C
Duggpunkt: 10°C
Fuktighet: 82%
Barometer: 1014.9 hPa
Visibility: 14 km
2020/07/03 10:40 KHAF 031040Z AUTO 18008KT 9SM 13/10 A2997 RMK AO2
 
KHWD - Hayward, California, USA
Distance from station: N 44km
Oppdatert: 03/07/2020 11:54
Klart
Klart
 Vind fra NNØ
Vind: NNØ 6 km/h
Temperatur: 14°C
Duggpunkt: 11°C
Fuktighet: 82%
Barometer: 1013.9 hPa
Clouds: Klart
Visibility: 16 km
2020/07/03 09:54 KHWD 030954Z AUTO 02003KT 10SM CLR 14/11 A2994 RMK AO2 SLP147 T01440106
KLVK - Livermore, California, USA
Distance from station: NNØ 51km
Oppdatert: 03/07/2020 11:53
Klart
Klart
 Vind fra VNV
Vind: VNV 11 km/h
Temperatur: 13°C
Duggpunkt: 11°C
Fuktighet: 88%
Barometer: 1013.5 hPa
Clouds: Klart
Visibility: 16 km
2020/07/03 09:53 KLVK 030953Z AUTO 30006KT 10SM CLR 13/11 A2993 RMK AO2 SLP131 T01330111